createdAt,value
2018-03-06T00:02:13.528Z,69.40
2018-03-06T00:07:21.335Z,69.40
2018-03-06T00:09:50.808Z,69.30
2018-03-06T00:12:18.610Z,69.30
2018-03-06T00:14:46.435Z,69.60
2018-03-06T00:17:14.351Z,69.60
2018-03-06T00:19:42.521Z,69.70
2018-03-06T00:22:10.259Z,69.80
2018-03-06T00:24:55.013Z,69.50
2018-03-06T00:27:23.568Z,69.40
2018-03-06T00:29:51.763Z,69.30
2018-03-06T00:32:19.529Z,69.30
2018-03-06T00:34:47.340Z,69.10
2018-03-06T00:37:15.087Z,69.30
2018-03-06T00:39:44.568Z,69.30
2018-03-06T00:42:13.285Z,69.10
2018-03-06T00:44:42.219Z,69.00
2018-03-06T00:47:10.022Z,69.30
2018-03-06T00:49:39.664Z,69.30
2018-03-06T00:52:07.471Z,69.00
2018-03-06T00:54:36.238Z,69.30
2018-03-06T00:57:05.937Z,69.10
2018-03-06T00:59:35.427Z,69.70
2018-03-06T01:02:03.244Z,69.80
2018-03-06T01:04:32.459Z,70.00
2018-03-06T01:07:00.905Z,70.20
2018-03-06T01:09:29.588Z,70.50
2018-03-06T01:11:58.107Z,70.30
2018-03-06T01:14:27.247Z,70.20
2018-03-06T01:16:58.691Z,70.20
2018-03-06T01:19:32.047Z,70.10
2018-03-06T01:22:13.179Z,69.70
2018-03-06T01:24:46.116Z,70.00
2018-03-06T01:27:13.925Z,70.70
2018-03-06T01:29:41.610Z,70.20
2018-03-06T01:32:09.423Z,70.20
2018-03-06T01:34:46.834Z,70.30
2018-03-06T01:37:17.997Z,70.00
2018-03-06T01:39:46.505Z,70.50
2018-03-06T01:42:15.944Z,70.50
2018-03-06T01:44:43.649Z,70.50
2018-03-06T01:47:12.152Z,70.80
2018-03-06T01:49:40.199Z,70.70
2018-03-06T01:52:09.607Z,71.00
2018-03-06T01:54:37.892Z,71.00
2018-03-06T01:57:06.877Z,71.10
2018-03-06T01:59:35.374Z,71.20
2018-03-06T02:02:03.219Z,71.20
2018-03-06T02:04:53.078Z,70.90
2018-03-06T02:07:20.921Z,70.80
2018-03-06T02:09:48.642Z,70.90
2018-03-06T02:12:17.040Z,71.00
2018-03-06T02:14:47.182Z,71.00
2018-03-06T02:17:21.171Z,71.80
2018-03-06T02:19:49.749Z,71.60
2018-03-06T02:22:17.404Z,71.50
2018-03-06T02:24:45.266Z,71.50
2018-03-06T02:27:13.618Z,71.20
2018-03-06T02:29:42.191Z,71.10
2018-03-06T02:34:42.975Z,71.00
2018-03-06T02:37:11.210Z,71.10
2018-03-06T02:39:39.508Z,70.70
2018-03-06T02:42:07.767Z,70.60
2018-03-06T02:44:35.464Z,70.90
2018-03-06T02:47:03.293Z,72.10
2018-03-06T02:52:06.576Z,72.20
2018-03-06T02:54:39.072Z,72.40
2018-03-06T02:57:09.860Z,73.60
2018-03-06T02:59:37.675Z,74.50
2018-03-06T03:02:05.589Z,74.30
2018-03-06T03:04:33.271Z,74.30
2018-03-06T03:07:01.026Z,74.60
2018-03-06T03:09:42.002Z,73.70
2018-03-06T03:12:09.719Z,72.80
2018-03-06T03:14:38.867Z,72.90
2018-03-06T03:17:11.068Z,72.00
2018-03-06T03:19:41.034Z,72.30
2018-03-06T03:22:08.698Z,72.60
2018-03-06T03:24:38.258Z,72.80
2018-03-06T03:27:06.575Z,73.30
2018-03-06T03:29:34.649Z,73.00
2018-03-06T03:32:02.372Z,72.70
2018-03-06T03:34:33.477Z,72.60
2018-03-06T03:37:07.406Z,72.20
2018-03-06T03:42:06.850Z,71.90
2018-03-06T03:44:34.639Z,71.80
2018-03-06T03:47:02.987Z,71.80
2018-03-06T03:49:30.710Z,71.90
2018-03-06T03:52:05.160Z,71.60
2018-03-06T03:54:32.971Z,71.50
2018-03-06T03:57:00.731Z,73.20
2018-03-06T03:59:28.389Z,73.90
2018-03-06T04:01:57.183Z,73.70
2018-03-06T04:04:24.917Z,73.20
2018-03-06T04:06:54.405Z,73.00
2018-03-06T04:12:06.646Z,73.60
2018-03-06T04:14:34.439Z,73.50
2018-03-06T04:17:02.941Z,73.50
2018-03-06T04:19:30.650Z,73.70
2018-03-06T04:21:58.445Z,74.70
2018-03-06T04:24:26.086Z,74.30
2018-03-06T04:26:53.827Z,73.90
2018-03-06T04:29:22.505Z,73.50
2018-03-06T04:31:50.511Z,73.00
2018-03-06T04:34:18.193Z,72.50
2018-03-06T04:36:46.108Z,72.80
2018-03-06T04:39:14.786Z,73.40
2018-03-06T04:41:42.499Z,73.40
2018-03-06T04:44:10.625Z,73.20
2018-03-06T04:46:38.992Z,72.70
2018-03-06T04:49:06.871Z,72.50
2018-03-06T04:51:36.185Z,72.00
2018-03-06T04:54:03.967Z,71.80
2018-03-06T04:56:31.621Z,71.80
2018-03-06T04:58:59.339Z,71.60
2018-03-06T05:01:27.197Z,71.60
2018-03-06T05:03:55.012Z,71.50
2018-03-06T05:06:33.199Z,71.30
2018-03-06T05:09:03.752Z,71.20
2018-03-06T05:11:31.449Z,71.20
2018-03-06T05:13:59.225Z,71.50
2018-03-06T05:16:27.007Z,72.60
2018-03-06T05:18:55.342Z,71.70
2018-03-06T05:21:23.306Z,71.70
2018-03-06T05:23:51.001Z,72.00
2018-03-06T05:26:19.476Z,72.30
2018-03-06T05:28:47.235Z,72.70
2018-03-06T05:31:14.986Z,72.80
2018-03-06T05:33:42.691Z,72.40
2018-03-06T05:36:10.644Z,72.00
2018-03-06T05:38:39.225Z,72.00
2018-03-06T05:41:07.777Z,72.00
2018-03-06T05:43:35.866Z,71.90
2018-03-06T05:46:05.662Z,72.10
2018-03-06T05:48:34.567Z,71.80
2018-03-06T05:51:02.762Z,71.80
2018-03-06T05:53:30.968Z,71.60
2018-03-06T05:55:58.759Z,71.50
2018-03-06T05:58:26.503Z,71.60
2018-03-06T06:00:55.068Z,72.00
2018-03-06T06:03:24.247Z,71.80
2018-03-06T06:05:52.363Z,71.80
2018-03-06T06:08:40.833Z,71.30
2018-03-06T06:11:09.297Z,71.50
2018-03-06T06:13:37.138Z,71.60
2018-03-06T06:16:04.989Z,71.30
2018-03-06T06:18:32.799Z,71.00
2018-03-06T06:21:00.582Z,70.70
2018-03-06T06:23:28.468Z,70.60
2018-03-06T06:25:56.141Z,70.70
2018-03-06T06:28:23.905Z,70.50
2018-03-06T06:30:51.633Z,70.80
2018-03-06T06:33:19.819Z,71.00
2018-03-06T06:35:50.704Z,71.00
2018-03-06T06:38:18.585Z,71.30
2018-03-06T06:40:47.841Z,70.60
2018-03-06T06:43:15.764Z,70.50
2018-03-06T06:45:48.104Z,70.40
2018-03-06T06:48:16.003Z,70.30
2018-03-06T06:50:44.394Z,70.10
2018-03-06T06:53:12.193Z,70.20
2018-03-06T06:55:44.634Z,70.10
2018-03-06T06:58:12.598Z,69.80
2018-03-06T07:00:41.168Z,69.80
2018-03-06T07:03:08.909Z,69.90
2018-03-06T07:05:36.674Z,69.60
2018-03-06T07:08:05.184Z,69.80
2018-03-06T07:10:32.918Z,69.80
2018-03-06T07:13:01.361Z,69.90
2018-03-06T07:15:29.347Z,69.90
2018-03-06T07:17:58.047Z,69.40
2018-03-06T07:20:25.853Z,69.60
2018-03-06T07:22:53.663Z,69.20
2018-03-06T07:25:21.845Z,68.50
2018-03-06T07:27:49.662Z,68.20
2018-03-06T07:30:17.509Z,67.90
2018-03-06T07:32:45.372Z,68.00
2018-03-06T07:35:13.046Z,67.80
2018-03-06T07:37:41.574Z,68.20
2018-03-06T07:40:10.083Z,68.20
2018-03-06T07:42:38.671Z,68.80
2018-03-06T07:45:07.504Z,68.60
2018-03-06T07:47:35.945Z,68.60
2018-03-06T07:50:03.755Z,67.60
2018-03-06T07:52:31.595Z,67.30
2018-03-06T07:55:00.064Z,66.90
2018-03-06T07:57:27.861Z,66.30
2018-03-06T07:59:55.717Z,66.40
2018-03-06T08:02:23.974Z,66.00
2018-03-06T08:04:51.754Z,66.10
2018-03-06T08:07:20.675Z,66.10
2018-03-06T08:09:49.073Z,65.60
2018-03-06T08:12:19.534Z,65.40
2018-03-06T08:14:48.121Z,65.30
2018-03-06T08:17:16.939Z,65.20
2018-03-06T08:19:45.426Z,65.20
2018-03-06T08:22:13.142Z,64.80
2018-03-06T08:24:42.951Z,64.10
2018-03-06T08:27:10.884Z,63.40
2018-03-06T08:29:38.721Z,63.10
2018-03-06T08:32:07.438Z,63.60
2018-03-06T08:34:38.685Z,63.50
2018-03-06T08:37:12.813Z,63.30
2018-03-06T08:39:43.266Z,63.30
2018-03-06T08:42:11.387Z,62.90
2018-03-06T08:44:39.358Z,62.70
2018-03-06T08:47:08.332Z,63.00
2018-03-06T08:52:14.904Z,62.70
2018-03-06T08:58:13.462Z,62.20
2018-03-06T09:03:27.069Z,62.50
2018-03-06T09:06:14.062Z,62.30
2018-03-06T09:08:46.507Z,61.90
2018-03-06T09:11:15.346Z,61.70
2018-03-06T09:13:43.419Z,60.80
2018-03-06T09:16:14.972Z,60.60
2018-03-06T09:18:42.994Z,60.20
2018-03-06T09:21:11.502Z,59.90
2018-03-06T09:23:39.554Z,59.80
2018-03-06T09:26:07.326Z,59.70
2018-03-06T09:28:35.310Z,59.60
2018-03-06T09:31:03.160Z,60.30
2018-03-06T09:33:30.907Z,59.50
2018-03-06T09:35:59.457Z,58.40
2018-03-06T09:38:27.384Z,58.40
2018-03-06T09:40:55.398Z,58.50
2018-03-06T09:43:23.858Z,58.20
2018-03-06T09:45:52.430Z,58.20
2018-03-06T09:48:21.237Z,56.60
2018-03-06T09:50:49.736Z,55.60
2018-03-06T09:53:17.510Z,54.90
2018-03-06T09:55:47.325Z,55.60
2018-03-06T09:58:16.705Z,54.00
2018-03-06T10:00:44.476Z,53.90
2018-03-06T10:03:16.372Z,54.00
2018-03-06T10:05:44.256Z,54.70
2018-03-06T10:10:46.356Z,54.00
2018-03-06T10:13:14.091Z,54.00
2018-03-06T10:15:42.119Z,53.10
2018-03-06T10:18:09.985Z,53.00
2018-03-06T10:20:38.468Z,52.00
2018-03-06T10:23:07.459Z,52.00
2018-03-06T10:25:35.711Z,51.80
2018-03-06T10:28:04.284Z,51.90
2018-03-06T10:30:32.023Z,50.30
2018-03-06T10:32:59.760Z,50.10
2018-03-06T10:35:28.395Z,48.50
2018-03-06T10:37:57.103Z,48.50
2018-03-06T10:40:25.668Z,47.00
2018-03-06T10:42:53.461Z,45.70
2018-03-06T10:45:21.825Z,45.60
2018-03-06T10:47:49.808Z,45.00
2018-03-06T10:50:17.833Z,44.20
2018-03-06T10:52:46.489Z,42.90
2018-03-06T10:55:16.202Z,42.20
2018-03-06T10:57:44.177Z,42.20
2018-03-06T11:00:12.034Z,42.20
2018-03-06T11:02:47.566Z,42.60
2018-03-06T11:05:15.649Z,43.70
2018-03-06T11:07:43.351Z,44.40
2018-03-06T11:10:11.114Z,43.80
2018-03-06T11:12:38.895Z,42.60
2018-03-06T11:15:06.627Z,43.00
2018-03-06T11:17:35.033Z,42.90
2018-03-06T11:20:02.775Z,42.80
2018-03-06T11:22:30.508Z,42.10
2018-03-06T11:24:58.989Z,43.30
2018-03-06T11:27:26.762Z,43.30
2018-03-06T11:29:54.558Z,41.70
2018-03-06T11:32:22.274Z,41.80
2018-03-06T11:34:50.797Z,42.50
2018-03-06T11:39:49.182Z,42.80
2018-03-06T11:42:16.972Z,43.10
2018-03-06T11:44:44.767Z,41.90
2018-03-06T11:47:13.758Z,43.20
2018-03-06T11:49:42.570Z,43.50
2018-03-06T11:52:11.128Z,43.20
2018-03-06T11:54:38.843Z,43.20
2018-03-06T11:57:06.958Z,42.70
2018-03-06T12:02:09.223Z,42.80
2018-03-06T12:04:37.587Z,44.30
2018-03-06T12:07:07.311Z,43.40
2018-03-06T12:09:35.008Z,42.50
2018-03-06T12:12:03.779Z,42.70
2018-03-06T12:14:31.509Z,42.60
2018-03-06T12:17:05.517Z,43.40
2018-03-06T12:19:33.429Z,43.10
2018-03-06T12:22:01.400Z,42.60
2018-03-06T12:24:30.677Z,43.50
2018-03-06T12:29:35.294Z,44.50
2018-03-06T12:32:03.075Z,44.60
2018-03-06T12:34:30.902Z,43.30
2018-03-06T12:36:58.762Z,42.70
2018-03-06T12:39:27.540Z,43.50
2018-03-06T12:41:58.517Z,44.00
2018-03-06T12:44:27.827Z,42.40
2018-03-06T12:46:56.173Z,43.90
2018-03-06T12:49:24.263Z,45.00
2018-03-06T12:51:52.177Z,43.50
2018-03-06T12:54:20.764Z,43.40
2018-03-06T12:56:52.801Z,43.20
2018-03-06T12:59:29.074Z,44.00
2018-03-06T13:01:56.996Z,44.90
2018-03-06T13:04:28.126Z,44.80
2018-03-06T13:06:56.017Z,43.10
2018-03-06T13:09:23.992Z,43.20
2018-03-06T13:11:51.715Z,43.60
2018-03-06T13:14:19.616Z,44.00
2018-03-06T13:16:48.553Z,44.40
2018-03-06T13:19:18.942Z,46.30
2018-03-06T13:21:49.551Z,44.30
2018-03-06T13:27:26.461Z,44.20
2018-03-06T13:29:54.342Z,46.10
2018-03-06T13:32:22.062Z,45.50
2018-03-06T13:34:50.623Z,47.10
2018-03-06T13:37:18.321Z,46.70
2018-03-06T13:39:48.970Z,46.00
2018-03-06T13:42:16.691Z,46.90
2018-03-06T13:44:47.454Z,47.80
2018-03-06T13:47:16.195Z,48.00
2018-03-06T13:49:44.864Z,48.00
2018-03-06T13:52:12.900Z,47.70
2018-03-06T13:54:44.910Z,47.60
2018-03-06T13:57:12.739Z,48.40
2018-03-06T13:59:42.387Z,48.70
2018-03-06T14:02:10.279Z,48.40
2018-03-06T14:04:38.207Z,49.20
2018-03-06T14:07:05.964Z,49.00
2018-03-06T14:09:34.481Z,47.70
2018-03-06T14:12:02.247Z,48.20
2018-03-06T14:14:31.711Z,47.80
2018-03-06T14:17:00.380Z,48.80
2018-03-06T14:19:28.111Z,48.00
2018-03-06T14:21:57.814Z,48.40
2018-03-06T14:24:29.074Z,49.00
2018-03-06T14:26:57.216Z,49.00
2018-03-06T14:29:26.052Z,49.00
2018-03-06T14:31:56.721Z,48.90
2018-03-06T14:34:24.517Z,49.00
2018-03-06T14:36:53.997Z,49.30
2018-03-06T14:39:26.185Z,48.70
2018-03-06T14:41:55.710Z,48.10
2018-03-06T14:44:36.129Z,48.00
2018-03-06T14:47:04.103Z,47.80
2018-03-06T14:49:31.927Z,48.40
2018-03-06T14:52:01.664Z,48.20
2018-03-06T14:54:38.519Z,49.00
2018-03-06T14:57:07.242Z,48.30
2018-03-06T14:59:35.338Z,48.30
2018-03-06T15:02:03.825Z,48.40
2018-03-06T15:04:32.611Z,47.90
2018-03-06T15:07:00.682Z,49.00
2018-03-06T15:09:28.497Z,49.20
2018-03-06T15:11:56.221Z,49.20
2018-03-06T15:14:24.116Z,50.30
2018-03-06T15:16:52.111Z,49.10
2018-03-06T15:19:21.793Z,48.70
2018-03-06T15:21:50.275Z,49.80
2018-03-06T15:24:18.968Z,49.60
2018-03-06T15:26:47.644Z,50.80
2018-03-06T15:29:15.542Z,48.80
2018-03-06T15:31:43.312Z,49.30
2018-03-06T15:34:11.883Z,48.90
2018-03-06T15:36:39.692Z,48.70
2018-03-06T15:39:08.391Z,49.60
2018-03-06T15:41:36.842Z,50.30
2018-03-06T15:44:07.336Z,49.70
2018-03-06T15:46:35.898Z,51.60
2018-03-06T15:49:04.017Z,51.40
2018-03-06T15:51:31.885Z,50.70
2018-03-06T15:53:59.705Z,50.40
2018-03-06T15:56:27.536Z,50.40
2018-03-06T15:58:56.363Z,50.30
2018-03-06T16:01:24.149Z,50.90
2018-03-06T16:03:53.348Z,52.40
2018-03-06T16:06:22.234Z,51.70
2018-03-06T16:08:53.605Z,52.30
2018-03-06T16:11:24.291Z,52.40
2018-03-06T16:13:53.008Z,52.30
2018-03-06T16:16:23.712Z,51.60
2018-03-06T16:18:52.396Z,51.60
2018-03-06T16:21:25.819Z,51.40
2018-03-06T16:24:02.224Z,51.90
2018-03-06T16:26:29.954Z,53.50
2018-03-06T16:28:58.598Z,53.90
2018-03-06T16:31:27.479Z,53.80
2018-03-06T16:34:01.662Z,53.60
2018-03-06T16:36:33.622Z,53.10
2018-03-06T16:39:02.272Z,53.80
2018-03-06T16:41:31.463Z,53.70
2018-03-06T16:44:02.165Z,53.70
2018-03-06T16:46:29.955Z,54.30
2018-03-06T16:48:57.737Z,54.50
2018-03-06T16:51:26.492Z,54.20
2018-03-06T16:53:54.647Z,53.40
2018-03-06T16:56:24.854Z,55.40
2018-03-06T16:58:52.901Z,55.40
2018-03-06T17:01:21.114Z,55.50
2018-03-06T17:03:49.497Z,55.80
2018-03-06T17:06:17.768Z,55.90
2018-03-06T17:08:47.116Z,56.30
2018-03-06T17:11:15.772Z,56.30
2018-03-06T17:13:44.314Z,56.10
2018-03-06T17:16:12.043Z,56.30
2018-03-06T17:18:39.734Z,57.60
2018-03-06T17:21:07.523Z,58.90
2018-03-06T17:23:38.687Z,59.80
2018-03-06T17:26:10.822Z,60.30
2018-03-06T17:28:38.541Z,60.30
2018-03-06T17:31:06.658Z,60.70
2018-03-06T17:33:34.379Z,60.90
2018-03-06T17:36:02.188Z,61.00
2018-03-06T17:38:30.070Z,61.00
2018-03-06T17:40:58.370Z,61.60
2018-03-06T17:43:29.880Z,61.80
2018-03-06T17:45:59.786Z,61.70
2018-03-06T17:48:28.028Z,62.00
2018-03-06T17:50:56.299Z,62.10
2018-03-06T17:53:25.392Z,62.20
2018-03-06T17:55:53.661Z,61.70
2018-03-06T17:58:21.495Z,62.40
2018-03-06T18:00:50.079Z,62.10
2018-03-06T18:03:17.835Z,61.70
2018-03-06T18:05:45.664Z,61.90
2018-03-06T18:08:13.513Z,61.60
2018-03-06T18:10:42.179Z,62.20
2018-03-06T18:13:09.997Z,62.60
2018-03-06T18:15:38.294Z,62.50
2018-03-06T18:18:07.145Z,62.50
2018-03-06T18:20:35.216Z,62.80
2018-03-06T18:23:03.872Z,63.20
2018-03-06T18:25:31.743Z,63.20
2018-03-06T18:28:01.370Z,63.30
2018-03-06T18:30:29.281Z,63.10
2018-03-06T18:32:57.420Z,63.10
2018-03-06T18:35:26.042Z,63.60
2018-03-06T18:37:55.220Z,64.20
2018-03-06T18:40:26.802Z,64.30
2018-03-06T18:42:57.872Z,64.40
2018-03-06T18:45:26.008Z,64.40
2018-03-06T18:47:54.040Z,64.20
2018-03-06T18:50:33.612Z,63.80
2018-03-06T18:53:02.539Z,64.00
2018-03-06T18:55:40.719Z,64.10
2018-03-06T18:58:08.808Z,64.30
2018-03-06T19:00:59.225Z,63.90
2018-03-06T19:03:40.716Z,64.80
2018-03-06T19:06:20.946Z,64.50
2018-03-06T19:08:50.031Z,64.50
2018-03-06T19:11:19.500Z,63.90
2018-03-06T19:13:47.416Z,64.20
2018-03-06T19:16:16.291Z,63.90
2018-03-06T19:18:44.341Z,63.30
2018-03-06T19:21:12.252Z,63.30
2018-03-06T19:23:40.399Z,63.20
2018-03-06T19:26:09.793Z,63.30
2018-03-06T19:28:40.597Z,63.10
2018-03-06T19:31:08.399Z,63.70
2018-03-06T19:33:36.317Z,64.70
2018-03-06T19:36:05.039Z,67.20
2018-03-06T19:38:33.822Z,67.20
2018-03-06T19:41:02.296Z,67.30
2018-03-06T19:43:30.116Z,67.20
2018-03-06T19:45:58.172Z,67.80
2018-03-06T19:48:26.356Z,68.30
2018-03-06T19:50:54.222Z,68.60
2018-03-06T19:53:23.038Z,68.00
2018-03-06T19:55:50.816Z,68.50
2018-03-06T19:58:18.702Z,68.50
2018-03-06T20:00:46.442Z,69.20
2018-03-06T20:03:14.475Z,69.00
2018-03-06T20:05:43.917Z,69.40
2018-03-06T20:08:12.009Z,68.90
2018-03-06T20:10:39.974Z,68.10
2018-03-06T20:13:07.803Z,67.70
2018-03-06T20:15:37.706Z,67.70
2018-03-06T20:18:06.194Z,67.40
2018-03-06T20:20:35.256Z,67.50
2018-03-06T20:23:03.986Z,67.40
2018-03-06T20:25:38.358Z,67.10
2018-03-06T20:28:07.297Z,66.50
2018-03-06T20:30:43.242Z,67.00
2018-03-06T20:33:17.570Z,66.80
2018-03-06T20:35:47.133Z,67.30
2018-03-06T20:38:20.499Z,67.50
2018-03-06T20:40:48.533Z,67.70
2018-03-06T20:43:18.095Z,67.70
2018-03-06T20:45:52.700Z,67.60
2018-03-06T20:48:20.505Z,67.80
2018-03-06T20:50:48.316Z,68.70
2018-03-06T20:53:21.929Z,69.50
2018-03-06T20:55:50.501Z,71.40
2018-03-06T20:58:19.117Z,75.40
2018-03-06T21:00:48.044Z,75.30
2018-03-06T21:03:15.820Z,77.10
2018-03-06T21:05:43.715Z,77.90
2018-03-06T21:08:12.420Z,78.70
2018-03-06T21:10:41.222Z,80.20
2018-03-06T21:13:11.578Z,80.40
2018-03-06T21:15:39.381Z,81.50
2018-03-06T21:18:08.084Z,81.60
2018-03-06T21:20:37.257Z,82.00
2018-03-06T21:23:10.311Z,81.90
2018-03-06T21:25:39.088Z,81.70
2018-03-06T21:28:07.653Z,81.60
2018-03-06T21:33:10.383Z,82.20
2018-03-06T21:35:39.114Z,82.60
2018-03-06T21:38:07.146Z,82.60
2018-03-06T21:40:37.316Z,82.90
2018-03-06T21:43:05.200Z,82.80
2018-03-06T21:45:33.112Z,83.00
2018-03-06T21:48:02.993Z,83.10
2018-03-06T21:50:30.660Z,83.10
2018-03-06T21:52:59.731Z,83.00
2018-03-06T21:55:27.579Z,83.10
2018-03-06T21:57:55.339Z,83.20
2018-03-06T22:00:23.148Z,83.30
2018-03-06T22:02:51.638Z,83.30
2018-03-06T22:05:20.148Z,83.30
2018-03-06T22:07:48.786Z,83.20
2018-03-06T22:10:16.728Z,83.10
2018-03-06T22:15:19.902Z,82.90
2018-03-06T22:17:47.767Z,83.00
2018-03-06T22:20:16.829Z,83.60
2018-03-06T22:22:45.696Z,83.50
2018-03-06T22:25:13.639Z,83.60
2018-03-06T22:27:41.438Z,83.80
2018-03-06T22:30:09.322Z,83.90
2018-03-06T22:32:37.943Z,84.00
2018-03-06T22:35:07.603Z,84.20
2018-03-06T22:37:36.515Z,84.20
2018-03-06T22:40:07.238Z,84.50
2018-03-06T22:42:37.732Z,84.50
2018-03-06T22:45:06.515Z,84.60
2018-03-06T22:47:34.328Z,84.50
2018-03-06T22:50:02.187Z,84.70
2018-03-06T22:52:30.133Z,84.70
2018-03-06T22:54:58.317Z,84.60
2018-03-06T22:57:27.784Z,85.30
2018-03-06T22:59:56.542Z,84.50
2018-03-06T23:02:25.207Z,84.30
2018-03-06T23:04:56.151Z,84.20
2018-03-06T23:07:23.852Z,84.40
2018-03-06T23:09:51.486Z,84.30
2018-03-06T23:12:19.437Z,84.30
2018-03-06T23:14:47.890Z,84.60
2018-03-06T23:17:18.610Z,85.30
2018-03-06T23:19:48.979Z,84.50
2018-03-06T23:22:16.725Z,84.60
2018-03-06T23:24:44.562Z,84.60
2018-03-06T23:27:21.273Z,84.60
2018-03-06T23:29:50.488Z,84.50
2018-03-06T23:32:18.357Z,84.70
2018-03-06T23:34:46.134Z,84.80
2018-03-06T23:37:14.980Z,84.10
2018-03-06T23:39:42.750Z,84.70
2018-03-06T23:42:12.273Z,84.60
2018-03-06T23:44:40.890Z,84.40
2018-03-06T23:47:10.999Z,84.60
2018-03-06T23:49:40.394Z,84.50
2018-03-06T23:52:10.351Z,84.30
2018-03-06T23:54:39.168Z,84.30
2018-03-06T23:57:07.100Z,84.20
2018-03-06T23:59:35.371Z,84.30
